Time;durP1;ratioP1;P1;durP2;ratioP2;P2;SDS_P1;SDS_P2;PMS_P1;PMS_P2;Temp;Humidity;BMP_temperature;BMP_pressure;BME280_temperature;BME280_humidity;BME280_pressure;Samples;Min_cycle;Max_cycle;Signal;HPM_P1;HPM_P2
2022/04/01 00:02:04;;;;;;;45.55;19.60;;;;;;;-0.29;100.00;99171.44;6016759;23;20026;-67
2022/04/01 00:04:30;;;;;;;46.58;18.90;;;;;;;-0.25;100.00;99172.09;6039947;23;20031;-66
2022/04/01 00:06:56;;;;;;;50.38;18.88;;;;;;;-0.22;100.00;99166.56;6040353;23;20303;-67
2022/04/01 00:09:22;;;;;;;52.00;20.15;;;;;;;-0.24;100.00;99168.47;6017004;23;20067;-66
2022/04/01 00:11:49;;;;;;;55.28;20.45;;;;;;;-0.23;100.00;99169.31;6017060;23;20031;-67
2022/04/01 00:14:15;;;;;;;55.50;21.27;;;;;;;-0.18;100.00;99172.53;6015723;23;20026;-68
2022/04/01 00:16:41;;;;;;;50.50;20.75;;;;;;;-0.26;100.00;99165.94;5992522;23;20027;-68
2022/04/01 00:19:06;;;;;;;50.55;20.85;;;;;;;-0.22;100.00;99165.72;6016080;23;20466;-65
2022/04/01 00:21:32;;;;;;;58.78;22.55;;;;;;;-0.35;100.00;99166.47;6016139;23;20026;-66
2022/04/01 00:23:58;;;;;;;55.40;21.17;;;;;;;-0.34;100.00;99168.19;6040365;23;20023;-65
2022/04/01 00:26:24;;;;;;;59.13;22.48;;;;;;;-0.30;100.00;99175.00;6040330;23;20083;-66
2022/04/01 00:28:50;;;;;;;59.85;22.38;;;;;;;-0.27;100.00;99173.97;6039606;23;20022;-65
2022/04/01 00:31:16;;;;;;;59.25;22.67;;;;;;;-0.26;100.00;99165.94;6039250;23;20178;-66
2022/04/01 00:33:42;;;;;;;61.30;22.83;;;;;;;-0.33;100.00;99143.34;6014974;23;20038;-67
2022/04/01 00:36:09;;;;;;;57.15;22.08;;;;;;;-0.21;100.00;99167.44;6016000;23;20018;-66
2022/04/01 00:38:35;;;;;;;54.97;21.60;;;;;;;-0.27;100.00;99169.50;6015487;23;20031;-65
2022/04/01 00:41:02;;;;;;;51.22;20.27;;;;;;;-0.23;100.00;99175.47;6062919;23;20019;-66
2022/04/01 00:43:30;;;;;;;64.63;23.40;;;;;;;-0.21;100.00;99173.59;6039000;23;20031;-64
2022/04/01 00:46:00;;;;;;;54.15;20.25;;;;;;;-0.27;100.00;99174.81;6039392;23;20025;-65
2022/04/01 00:48:26;;;;;;;54.40;20.52;;;;;;;-0.31;100.00;99183.94;6039701;23;20046;-66
2022/04/01 00:50:53;;;;;;;49.25;18.45;;;;;;;-0.29;100.00;99182.03;6015424;23;20414;-65
2022/04/01 00:53:21;;;;;;;52.63;19.52;;;;;;;-0.30;100.00;99179.47;6015468;23;20082;-66
2022/04/01 00:55:47;;;;;;;51.60;20.88;;;;;;;-0.29;100.00;99187.34;6015016;23;20031;-66
2022/04/01 00:58:14;;;;;;;56.95;22.05;;;;;;;-0.37;100.00;99184.28;6039209;23;20034;-67
2022/04/01 01:00:41;;;;;;;56.15;20.55;;;;;;;-0.36;100.00;99172.75;6038902;23;20035;-65
2022/04/01 01:03:07;;;;;;;52.28;20.90;;;;;;;-0.35;100.00;99182.41;6039519;23;20025;-65
2022/04/01 01:05:33;;;;;;;53.60;20.38;;;;;;;-0.32;100.00;99189.34;6039112;23;20030;-65
2022/04/01 01:08:04;;;;;;;59.75;20.85;;;;;;;-0.23;100.00;99195.88;6015442;23;20026;-64
2022/04/01 01:10:30;;;;;;;52.20;20.20;;;;;;;-0.28;100.00;99188.22;5993013;23;20030;-66
2022/04/01 01:12:56;;;;;;;50.78;19.23;;;;;;;-0.36;100.00;99188.69;6015118;23;20019;-65
2022/04/01 01:15:24;;;;;;;52.40;19.00;;;;;;;-0.27;100.00;99193.41;6015090;23;20365;-65
2022/04/01 01:17:50;;;;;;;48.45;19.95;;;;;;;-0.27;100.00;99189.91;6038560;23;20099;-64
2022/04/01 01:20:17;;;;;;;57.08;23.02;;;;;;;-0.27;100.00;99193.41;6014844;23;20342;-65
2022/04/01 01:22:47;;;;;;;43.90;18.83;;;;;;;-0.32;100.00;99176.91;6039021;23;20018;-65
2022/04/01 01:25:14;;;;;;;54.15;20.05;;;;;;;-0.27;100.00;99193.41;6039254;23;20034;-65
2022/04/01 01:27:43;;;;;;;50.60;19.90;;;;;;;-0.21;100.00;99194.00;6015664;23;20031;-66
2022/04/01 01:30:09;;;;;;;48.22;18.85;;;;;;;-0.21;100.00;99199.31;6040183;23;20063;-65
2022/04/01 01:32:37;;;;;;;48.22;18.88;;;;;;;-0.23;100.00;99190.56;6017224;23;20091;-65
2022/04/01 01:35:05;;;;;;;48.75;18.77;;;;;;;-0.23;100.00;99195.88;6041166;23;20040;-65
2022/04/01 01:37:31;;;;;;;40.67;17.73;;;;;;;-0.34;100.00;99181.44;5993314;23;20083;-65
2022/04/01 01:39:58;;;;;;;47.30;18.00;;;;;;;-0.28;100.00;99198.84;6016504;23;20249;-66
2022/04/01 01:42:25;;;;;;;49.17;18.70;;;;;;;-0.30;100.00;99206.88;6041049;23;20082;-66
2022/04/01 01:44:50;;;;;;;43.65;17.67;;;;;;;-0.28;100.00;99202.34;6040921;23;20027;-66
2022/04/01 01:47:16;;;;;;;43.03;17.73;;;;;;;-0.22;100.00;99202.91;6017089;23;20026;-67
2022/04/01 01:54:42;;;;;;;46.65;19.33;;;;;;;-0.20;100.00;99201.00;6040287;23;20101;-65
2022/04/01 01:55:13;;;;;;;40.00;15.68;;;;;;;-0.25;100.00;99210.13;6011930;23;20027;-65
2022/04/01 01:57:39;;;;;;;41.53;16.92;;;;;;;-0.19;100.00;99205.38;5988845;23;20026;-66
2022/04/01 02:00:10;;;;;;;40.75;16.83;;;;;;;-0.21;100.00;99212.59;5988676;23;20453;-65
2022/04/01 02:02:39;;;;;;;43.28;18.10;;;;;;;-0.27;100.00;99211.16;6037770;23;20136;-65
2022/04/01 02:05:06;;;;;;;43.65;17.38;;;;;;;-0.22;100.00;99216.19;5988760;23;20027;-66
2022/04/01 02:07:33;;;;;;;41.33;18.13;;;;;;;-0.43;100.00;99192.66;5988758;23;20027;-65
2022/04/01 02:09:59;;;;;;;37.58;15.90;;;;;;;-0.38;100.00;99203.00;5988471;23;20080;-65
2022/04/01 02:12:25;;;;;;;39.00;17.30;;;;;;;-0.28;100.00;99210.31;6012252;23;20019;-65
2022/04/01 02:14:51;;;;;;;40.90;16.55;;;;;;;-0.29;100.00;99208.59;5989024;23;20480;-66
2022/04/01 02:17:17;;;;;;;36.50;16.38;;;;;;;-0.30;100.00;99216.66;5988835;23;20023;-65
2022/04/01 02:19:43;;;;;;;43.58;17.33;;;;;;;-0.35;100.00;99208.13;5988368;23;20023;-64
2022/04/01 02:22:10;;;;;;;44.33;19.50;;;;;;;-0.47;100.00;99199.09;5988292;23;20285;-67
2022/04/01 02:24:38;;;;;;;42.25;16.98;;;;;;;-0.37;100.00;99210.84;5965955;23;20031;-65
2022/04/01 02:27:05;;;;;;;39.97;16.67;;;;;;;-0.34;100.00;99225.75;5965638;23;20019;-66
2022/04/01 02:29:30;;;;;;;40.30;16.42;;;;;;;-0.37;100.00;99221.47;5988953;23;20038;-65
2022/04/01 02:32:16;;;;;;;41.75;16.27;;;;;;;-0.35;100.00;99211.63;5972080;23;20039;-66
2022/04/01 02:35:00;;;;;;;43.00;18.08;;;;;;;-0.34;100.00;99217.78;5992130;23;20099;-65
2022/04/01 02:37:29;;;;;;;41.55;15.68;;;;;;;-0.36;100.00;99223.19;5988602;23;20369;-65
2022/04/01 02:39:58;;;;;;;36.05;15.40;;;;;;;-0.39;100.00;99223.38;6011594;23;20054;-65
2022/04/01 02:42:29;;;;;;;32.03;13.75;;;;;;;-0.39;100.00;99233.16;5989818;23;20020;-65
2022/04/01 02:44:56;;;;;;;37.38;15.18;;;;;;;-0.36;100.00;99219.69;5965374;23;20046;-67
2022/04/01 02:47:22;;;;;;;41.88;17.92;;;;;;;-0.41;100.00;99225.25;5967576;23;20051;-66
2022/04/01 02:49:48;;;;;;;35.55;15.13;;;;;;;-0.38;100.00;99230.41;5990253;23;20553;-66
2022/04/01 02:52:14;;;;;;;37.33;14.93;;;;;;;-0.41;100.00;99230.56;6032895;23;20054;-65
2022/04/01 02:54:40;;;;;;;37.80;16.08;;;;;;;-0.41;100.00;99229.72;5969987;23;20034;-65
2022/04/01 02:57:09;;;;;;;39.38;16.13;;;;;;;-0.42;100.00;99231.53;5993033;23;20410;-65
2022/04/01 02:59:36;;;;;;;37.33;16.08;;;;;;;-0.41;100.00;99241.19;5993427;23;20106;-65
2022/04/01 03:02:03;;;;;;;34.95;14.18;;;;;;;-0.44;100.00;99219.28;5992979;23;20097;-64
2022/04/01 03:04:29;;;;;;;38.30;13.93;;;;;;;-0.45;100.00;99220.25;5993066;23;20129;-61
2022/04/01 03:06:58;;;;;;;30.33;13.43;;;;;;;-0.43;100.00;99232.47;6016661;23;20030;-66
2022/04/01 03:09:24;;;;;;;31.10;13.88;;;;;;;-0.41;100.00;99241.19;6015793;23;20443;-64
2022/04/01 03:11:56;;;;;;;34.20;14.38;;;;;;;-0.43;100.00;99240.44;5994245;23;20019;-65
2022/04/01 03:14:45;;;;;;;24.05;10.70;;;;;;;-0.58;100.00;99244.03;5974947;23;20121;-65
2022/04/01 03:17:31;;;;;;;35.72;15.60;;;;;;;-0.47;100.00;99244.25;6043866;23;20026;-65
2022/04/01 03:19:59;;;;;;;34.95;15.25;;;;;;;-0.53;100.00;99247.25;6016470;23;20033;-66
2022/04/01 03:22:26;;;;;;;35.03;14.48;;;;;;;-0.55;100.00;99241.16;6040108;23;20031;-66
2022/04/01 03:24:53;;;;;;;32.92;14.30;;;;;;;-0.57;100.00;99251.88;6015757;23;20126;-66
2022/04/01 03:27:19;;;;;;;32.75;14.65;;;;;;;-0.48;100.00;99255.78;5992258;23;20473;-66
2022/04/01 03:29:45;;;;;;;26.95;11.05;;;;;;;-0.59;100.00;99252.91;5992859;23;20053;-66
2022/04/01 03:32:13;;;;;;;29.90;11.77;;;;;;;-0.60;100.00;99251.22;6016217;23;20050;-66
2022/04/01 03:34:41;;;;;;;29.70;13.63;;;;;;;-0.60;100.00;99241.44;6017224;23;20264;-67
2022/04/01 03:37:08;;;;;;;38.75;17.65;;;;;;;-0.63;100.00;99256.69;6017011;23;20034;-66
2022/04/01 03:39:35;;;;;;;39.60;15.73;;;;;;;-0.49;100.00;99264.69;6015750;23;20114;-64
2022/04/01 03:42:06;;;;;;;32.60;13.85;;;;;;;-0.49;100.00;99264.69;6015932;23;20022;-65
2022/04/01 03:44:37;;;;;;;32.72;13.90;;;;;;;-0.47;100.00;99256.66;6017218;23;20018;-67
2022/04/01 03:47:24;;;;;;;33.20;14.10;;;;;;;-0.44;100.00;99261.75;6020086;23;20059;-65
2022/04/01 03:49:55;;;;;;;34.88;14.93;;;;;;;-0.48;100.00;99263.75;6015858;23;20078;-67
2022/04/01 03:52:24;;;;;;;28.73;12.55;;;;;;;-0.57;100.00;99256.34;6011061;23;20079;-66
2022/04/01 03:54:56;;;;;;;30.08;12.65;;;;;;;-0.55;100.00;99265.06;6033933;23;20342;-67
2022/04/01 03:57:41;;;;;;;34.85;14.82;;;;;;;-0.52;100.00;99271.03;5991089;23;20082;-66
2022/04/01 04:00:41;;;;;;;31.63;12.90;;;;;;;-0.56;100.00;99258.03;5992979;23;20084;-66
2022/04/01 04:03:09;;;;;;;32.85;13.80;;;;;;;-0.55;100.00;99255.31;6010933;23;20034;-66
2022/04/01 04:05:36;;;;;;;32.30;11.88;;;;;;;-0.70;100.00;99244.72;6010441;23;20023;-65
2022/04/01 04:08:04;;;;;;;31.38;12.77;;;;;;;-0.56;100.00;99250.09;6034409;23;20025;-66
2022/04/01 04:10:32;;;;;;;28.85;12.27;;;;;;;-0.52;100.00;99264.88;5986708;23;20034;-69
2022/04/01 04:13:18;;;;;;;29.88;13.57;;;;;;;-0.47;100.00;99262.81;5990593;23;20115;-67
2022/04/01 04:16:09;;;;;;;32.10;12.80;;;;;;;-0.43;100.00;99264.34;6011017;23;20027;-65
2022/04/01 04:18:47;;;;;;;33.58;12.75;;;;;;;-0.49;100.00;99260.25;6010855;23;20034;-66
2022/04/01 04:21:29;;;;;;;29.75;12.55;;;;;;;-0.49;100.00;99254.94;6011125;23;20097;-67
2022/04/01 04:23:58;;;;;;;28.77;11.98;;;;;;;-0.46;100.00;99264.53;5987647;23;20027;-67
2022/04/01 04:26:39;;;;;;;33.10;13.25;;;;;;;-0.36;100.00;99273.66;6010477;23;20454;-66
2022/04/01 04:29:10;;;;;;;31.52;13.38;;;;;;;-0.37;100.00;99271.94;5987433;23;20087;-67
2022/04/01 04:31:57;;;;;;;27.15;12.00;;;;;;;-0.44;100.00;99280.34;5986792;23;20019;-67
2022/04/01 04:34:27;;;;;;;30.40;12.55;;;;;;;-0.37;100.00;99273.72;5986623;23;20035;-66
2022/04/01 04:36:56;;;;;;;29.95;13.52;;;;;;;-0.62;100.00;99243.34;6009867;23;20023;-67
2022/04/01 04:39:29;;;;;;;29.98;13.10;;;;;;;-0.51;100.00;99256.00;5986640;23;20456;-67
2022/04/01 04:41:55;;;;;;;28.85;11.65;;;;;;;-0.46;100.00;99280.47;5986669;23;20031;-67
2022/04/01 04:44:25;;;;;;;28.60;12.68;;;;;;;-0.38;100.00;99282.66;5986710;23;20131;-67
2022/04/01 04:46:52;;;;;;;25.02;10.30;;;;;;;-0.54;100.00;99261.47;5987246;23;20027;-66
2022/04/01 04:49:22;;;;;;;26.88;12.48;;;;;;;-0.62;100.00;99274.31;5964325;23;20031;-67
2022/04/01 04:51:48;;;;;;;30.45;13.05;;;;;;;-0.46;100.00;99279.59;5991297;23;20035;-66
2022/04/01 04:54:27;;;;;;;27.70;13.07;;;;;;;-0.36;100.00;99292.25;6020669;23;20027;-66
2022/04/01 04:57:15;;;;;;;26.63;12.13;;;;;;;-0.32;100.00;99295.56;5995915;23;20053;-67
2022/04/01 04:59:42;;;;;;;23.88;10.73;;;;;;;-0.41;100.00;99289.00;6014716;23;20035;-66
2022/04/01 05:02:19;;;;;;;26.63;11.15;;;;;;;-0.30;100.00;99305.13;6039825;23;20029;-71
2022/04/01 05:04:50;;;;;;;;;;;;;;;-0.33;100.00;99307.13;6011236;23;20113;-68
2022/04/01 05:07:38;;;;;;;20.70;9.35;;;;;;;-0.33;100.00;99313.31;6004859;23;19917;-67
2022/04/01 05:10:47;;;;;;;24.10;11.88;;;;;;;-0.29;100.00;99308.69;5922414;24;20040;-67
2022/04/01 05:13:14;;;;;;;25.45;10.73;;;;;;;-0.32;100.00;99308.84;5973362;23;20453;-67
2022/04/01 05:16:02;;;;;;;24.55;10.25;;;;;;;-0.30;100.00;99306.94;6015587;23;20418;-68
2022/04/01 05:18:39;;;;;;;26.30;12.10;;;;;;;-0.29;100.00;99308.69;6036910;23;20369;-68
2022/04/01 05:21:18;;;;;;;23.50;11.02;;;;;;;-0.19;100.00;99303.66;6037169;23;20035;-68
2022/04/01 05:23:54;;;;;;;24.30;10.82;;;;;;;-0.23;100.00;99296.81;6013565;23;20037;-68
2022/04/01 05:26:25;;;;;;;23.83;10.48;;;;;;;-0.10;100.00;99313.75;5987762;23;20023;-72
2022/04/01 05:29:31;;;;;;;25.17;10.63;;;;;;;-0.26;100.00;99297.84;6015757;23;20082;-72
2022/04/01 05:32:03;;;;;;;25.15;10.52;;;;;;;-0.08;99.49;99322.44;6013344;23;20158;-69
2022/04/01 05:34:42;;;;;;;23.10;10.57;;;;;;;-0.17;99.35;99309.75;6012869;23;20505;-76
2022/04/01 05:37:08;;;;;;;21.75;9.55;;;;;;;-0.17;99.21;99291.16;6012241;23;20023;-69
2022/04/01 05:39:37;;;;;;;22.85;10.70;;;;;;;-0.07;98.98;99309.09;6034694;23;20441;-73
2022/04/01 05:42:10;;;;;;;23.55;10.15;;;;;;;0.06;98.49;99303.88;6058673;23;20471;-73
2022/04/01 05:44:43;;;;;;;25.55;10.90;;;;;;;0.04;98.71;99295.16;5990281;23;20118;-66
2022/04/01 05:47:10;;;;;;;27.88;10.65;;;;;;;-0.04;98.86;99306.25;6013072;23;20037;-68
2022/04/01 05:49:41;;;;;;;24.23;10.35;;;;;;;0.03;99.25;99304.06;6011891;23;20037;-65
2022/04/01 05:52:11;;;;;;;27.70;12.00;;;;;;;0.01;98.72;99295.34;6035162;23;20021;-67
2022/04/01 05:54:39;;;;;;;21.85;9.52;;;;;;;0.13;98.38;99313.19;6035575;23;20034;-67
2022/04/01 05:57:08;;;;;;;24.85;11.45;;;;;;;0.07;97.88;99321.53;6037575;23;20023;-67
2022/04/01 05:59:34;;;;;;;22.75;10.60;;;;;;;0.09;97.12;99309.00;6013364;23;20160;-67
2022/04/01 06:02:26;;;;;;;21.95;10.15;;;;;;;0.14;96.99;99317.53;5990086;23;20023;-67
2022/04/01 06:05:10;;;;;;;25.90;10.30;;;;;;;0.16;97.60;99305.03;6036963;23;20117;-67
2022/04/01 06:07:42;;;;;;;20.67;9.60;;;;;;;0.06;96.67;99298.56;6060221;23;20394;-67
2022/04/01 06:10:22;;;;;;;22.30;9.18;;;;;;;0.12;97.11;99319.47;6011859;23;20035;-67
2022/04/01 06:13:10;;;;;;;19.17;8.52;;;;;;;0.18;95.76;99308.47;6016099;23;20023;-67
2022/04/01 06:16:32;;;;;;;21.65;10.13;;;;;;;0.28;95.42;99313.19;6037155;23;20062;-67
2022/04/01 06:19:24;;;;;;;21.52;9.65;;;;;;;0.21;94.90;99305.59;6041266;23;20233;-69
2022/04/01 06:22:22;;;;;;;23.63;10.20;;;;;;;0.38;94.78;99314.34;6038748;23;20022;-67
2022/04/01 06:25:12;;;;;;;20.55;9.00;;;;;;;0.45;93.77;99300.56;6015485;23;20042;-67
2022/04/01 06:27:47;;;;;;;18.52;8.25;;;;;;;0.56;93.56;99307.88;6017396;23;20109;-67
2022/04/01 06:30:17;;;;;;;19.92;8.32;;;;;;;0.56;92.21;99305.22;6015006;23;20118;-67
2022/04/01 06:32:52;;;;;;;14.00;5.38;;;;;;;0.39;92.21;99305.41;6039565;23;20358;-68
2022/04/01 06:35:28;;;;;;;20.98;7.93;;;;;;;0.56;91.78;99302.53;6062535;23;20019;-67
2022/04/01 06:38:06;;;;;;;16.83;7.15;;;;;;;0.59;91.12;99304.16;6038723;23;20029;-66
2022/04/01 06:40:42;;;;;;;16.35;7.85;;;;;;;0.69;90.20;99303.47;6012516;23;20025;-67
2022/04/01 06:43:08;;;;;;;17.77;7.50;;;;;;;0.86;89.76;99312.19;6036550;23;20468;-69
2022/04/01 06:45:53;;;;;;;13.32;6.82;;;;;;;0.78;89.42;99306.50;6035927;23;20109;-67
2022/04/01 06:48:40;;;;;;;15.70;6.32;;;;;;;0.78;90.90;99312.69;6035211;23;20023;-67
2022/04/01 06:51:25;;;;;;;14.30;6.60;;;;;;;0.80;88.39;99315.22;6040704;23;20118;-67
2022/04/01 06:54:10;;;;;;;15.40;7.05;;;;;;;0.68;88.40;99290.25;6016275;23;20145;-66
2022/04/01 06:56:51;;;;;;;16.83;7.10;;;;;;;0.72;88.97;99297.09;6015871;23;20125;-66
2022/04/01 06:59:17;;;;;;;14.30;7.32;;;;;;;0.77;88.99;99296.78;6036357;23;20027;-68
2022/04/01 07:01:43;;;;;;;17.88;7.45;;;;;;;0.63;89.34;99311.00;6035920;23;20086;-68
2022/04/01 07:04:10;;;;;;;14.18;6.60;;;;;;;0.71;88.95;99306.88;6012886;23;20030;-67
2022/04/01 07:06:36;;;;;;;14.40;6.80;;;;;;;0.74;89.01;99310.31;5989667;23;20099;-67
2022/04/01 07:09:02;;;;;;;14.80;6.53;;;;;;;0.88;89.09;99302.31;6011858;23;20027;-67
2022/04/01 07:11:28;;;;;;;21.63;6.60;;;;;;;0.96;87.90;99311.50;5989250;23;20034;-66
2022/04/01 07:13:54;;;;;;;13.40;6.30;;;;;;;1.12;88.03;99315.81;6012188;23;20023;-67
2022/04/01 07:16:20;;;;;;;13.30;6.53;;;;;;;1.05;86.89;99311.84;6013060;23;20037;-68
2022/04/01 07:18:46;;;;;;;14.18;6.63;;;;;;;1.04;87.52;99303.00;6036371;23;20026;-67
2022/04/01 07:21:12;;;;;;;13.43;5.88;;;;;;;1.06;86.65;99306.44;6012803;23;20117;-67
2022/04/01 07:23:38;;;;;;;13.57;6.35;;;;;;;1.03;87.05;99303.97;6060060;23;20030;-67
2022/04/01 07:26:05;;;;;;;13.48;5.93;;;;;;;0.96;87.38;99310.66;6012215;23;20045;-67
2022/04/01 07:28:31;;;;;;;12.65;5.68;;;;;;;1.04;86.34;99303.00;6036256;23;20023;-68
2022/04/01 07:30:57;;;;;;;14.07;5.68;;;;;;;1.09;86.04;99306.22;6012125;23;20031;-69
2022/04/01 07:33:23;;;;;;;18.05;7.38;;;;;;;1.01;86.64;99308.53;6013383;23;20027;-66
2022/04/01 07:35:49;;;;;;;12.43;5.25;;;;;;;0.74;87.47;99310.31;6035578;23;20034;-67
2022/04/01 07:38:15;;;;;;;13.18;5.93;;;;;;;0.98;87.08;99311.38;6013794;23;20440;-66
2022/04/01 07:40:42;;;;;;;13.25;5.93;;;;;;;1.01;86.22;99297.88;6036055;23;20034;-68
2022/04/01 07:43:08;;;;;;;12.57;5.55;;;;;;;1.02;86.07;99304.91;6013415;23;20496;-66
2022/04/01 07:45:34;;;;;;;14.98;5.95;;;;;;;1.16;85.81;99310.19;6060115;23;20030;-67
2022/04/01 07:48:01;;;;;;;12.02;4.80;;;;;;;1.22;85.51;99318.75;6008106;23;20526;-66
2022/04/01 07:50:27;;;;;;;14.52;5.40;;;;;;;1.15;84.71;99318.28;6034022;23;20075;-69
2022/04/01 07:52:54;;;;;;;11.60;5.22;;;;;;;1.25;84.06;99315.88;6036739;23;20026;-70
2022/04/01 07:55:20;;;;;;;12.32;5.13;;;;;;;1.38;82.80;99309.63;6013638;23;20035;-67
2022/04/01 07:57:49;;;;;;;11.02;4.88;;;;;;;1.51;82.45;99312.34;6013332;23;20026;-67
2022/04/01 08:00:17;;;;;;;13.68;5.43;;;;;;;1.40;82.31;99309.53;6034602;23;20481;-66
2022/04/01 08:02:47;;;;;;;14.80;5.53;;;;;;;1.52;82.74;99306.06;6013322;23;20174;-69
2022/04/01 08:05:13;;;;;;;12.45;4.68;;;;;;;1.55;82.98;99313.00;6013118;23;20023;-68
2022/04/01 08:07:39;;;;;;;14.38;5.32;;;;;;;1.64;81.19;99307.88;6013275;23;20113;-66
2022/04/01 08:10:06;;;;;;;9.98;3.72;;;;;;;1.49;82.22;99306.25;6012371;23;20049;-67
2022/04/01 08:12:34;;;;;;;13.73;3.92;;;;;;;1.61;81.43;99308.13;6008980;23;20023;-67
2022/04/01 08:15:01;;;;;;;12.70;4.45;;;;;;;1.91;79.15;99314.97;6061414;23;20022;-67
2022/04/01 08:17:29;;;;;;;11.48;4.78;;;;;;;1.87;77.47;99308.16;6034499;23;20091;-66
2022/04/01 08:19:55;;;;;;;11.93;4.93;;;;;;;2.00;77.74;99309.00;6011841;23;20026;-66
2022/04/01 08:22:21;;;;;;;14.63;4.82;;;;;;;2.07;76.52;99307.63;6034850;23;20118;-67
2022/04/01 08:24:47;;;;;;;14.02;5.50;;;;;;;1.99;76.51;99320.63;6012639;23;20037;-67
2022/04/01 08:27:14;;;;;;;12.13;5.65;;;;;;;1.94;76.85;99301.44;6058144;23;20034;-67
2022/04/01 08:29:41;;;;;;;13.25;5.60;;;;;;;2.20;76.74;99309.47;5989627;23;20366;-66
2022/04/01 08:32:07;;;;;;;14.63;5.28;;;;;;;2.23;76.68;99319.88;6058241;23;20023;-68
2022/04/01 08:34:33;;;;;;;14.43;5.72;;;;;;;2.46;75.62;99332.47;6034573;23;20107;-67
2022/04/01 08:36:59;;;;;;;12.15;5.10;;;;;;;2.50;73.61;99322.44;6011113;23;20048;-66
2022/04/01 08:39:25;;;;;;;12.40;5.35;;;;;;;2.58;73.40;99312.94;5987589;23;20030;-68
2022/04/01 08:41:51;;;;;;;16.40;6.28;;;;;;;2.91;72.48;99311.47;6034401;23;20023;-67
2022/04/01 08:44:17;;;;;;;11.95;4.32;;;;;;;3.33;71.14;99314.66;6058922;23;20114;-67
2022/04/01 08:46:44;;;;;;;12.00;4.63;;;;;;;3.92;69.81;99300.41;6010622;23;20086;-67
2022/04/01 08:49:09;;;;;;;13.57;5.32;;;;;;;4.08;67.24;99327.66;6011209;23;20022;-68
2022/04/01 08:51:36;;;;;;;12.18;4.88;;;;;;;4.27;66.66;99319.91;6033992;23;20134;-73
2022/04/01 08:54:03;;;;;;;13.65;5.35;;;;;;;4.40;66.07;99309.13;6013328;23;20110;-68
2022/04/01 08:56:29;;;;;;;18.17;7.60;;;;;;;4.50;67.04;99307.44;6058355;23;20082;-66
2022/04/01 08:58:55;;;;;;;15.48;5.35;;;;;;;4.55;63.84;99310.56;5987511;23;20375;-68
2022/04/01 09:01:21;;;;;;;12.95;4.55;;;;;;;4.16;65.75;99309.19;6035342;23;20605;-68
2022/04/01 09:03:47;;;;;;;12.55;5.07;;;;;;;4.00;64.74;99327.41;6011745;23;20158;-68
2022/04/01 09:06:13;;;;;;;12.10;4.88;;;;;;;4.16;65.19;99332.41;6011172;23;20022;-68
2022/04/01 09:08:42;;;;;;;13.98;4.80;;;;;;;4.19;65.03;99319.66;5989443;23;20046;-67
2022/04/01 09:11:10;;;;;;;12.05;4.85;;;;;;;4.14;64.32;99326.34;5988611;23;20030;-68
2022/04/01 09:13:48;;;;;;;17.08;5.55;;;;;;;3.81;65.22;99255.78;6013332;23;20031;-68
2022/04/01 09:16:36;;;;;;;12.55;4.65;;;;;;;4.35;63.83;99313.97;6035450;23;20433;-71
2022/04/01 09:19:04;;;;;;;11.80;4.97;;;;;;;4.50;64.61;99317.28;6036578;23;20035;-69
2022/04/01 09:21:32;;;;;;;10.38;3.90;;;;;;;4.71;61.28;99312.03;6035812;23;20030;-70
2022/04/01 09:23:59;;;;;;;11.75;4.45;;;;;;;5.30;61.30;99307.19;6035667;23;20049;-71
2022/04/01 09:26:43;;;;;;;10.88;4.25;;;;;;;6.02;58.38;99301.16;6012062;23;20031;-68
2022/04/01 09:29:11;;;;;;;10.65;4.47;;;;;;;6.09;57.56;99297.97;6035419;23;20511;-71
2022/04/01 09:31:40;;;;;;;14.45;5.13;;;;;;;5.51;57.94;99296.50;6011836;23;20410;-69
2022/04/01 09:34:10;;;;;;;13.25;4.05;;;;;;;5.31;59.51;99300.84;6012220;23;20434;-71
2022/04/01 09:36:37;;;;;;;12.40;4.70;;;;;;;5.04;60.17;99287.88;5989234;23;20480;-75
2022/04/01 09:39:17;;;;;;;8.95;3.95;;;;;;;5.08;58.92;99300.06;6035791;23;20415;-69
2022/04/01 09:41:46;;;;;;;10.95;3.88;;;;;;;4.58;61.21;99296.09;6011265;23;20062;-68
2022/04/01 09:44:16;;;;;;;10.00;4.03;;;;;;;4.90;60.84;99298.88;6036616;23;20124;-69
2022/04/01 09:46:47;;;;;;;9.45;3.83;;;;;;;5.21;60.42;99305.25;6035830;23;20031;-70
2022/04/01 09:49:31;;;;;;;10.80;3.03;;;;;;;5.07;59.98;99300.19;6012180;23;20027;-73
2022/04/01 09:51:57;;;;;;;10.93;4.30;;;;;;;5.14;59.07;99300.53;5990153;23;20018;-67
2022/04/01 09:54:24;;;;;;;12.18;4.47;;;;;;;5.40;57.93;99293.88;6060754;23;20054;-67
2022/04/01 09:56:54;;;;;;;11.35;4.30;;;;;;;5.75;57.62;99298.13;6060959;23;20026;-70
2022/04/01 09:59:23;;;;;;;11.52;4.28;;;;;;;5.59;57.62;99286.97;5990600;23;20115;-70
2022/04/01 10:01:49;;;;;;;13.35;4.70;;;;;;;5.24;58.17;99277.38;6063291;23;20026;-68
2022/04/01 10:04:15;;;;;;;9.23;3.55;;;;;;;5.21;59.05;99273.09;6039152;23;20114;-68
2022/04/01 10:06:42;;;;;;;9.88;4.20;;;;;;;5.64;56.16;99274.91;6015581;23;20114;-68
2022/04/01 10:09:12;;;;;;;10.20;4.28;;;;;;;5.70;57.34;99279.72;6015871;23;20027;-68
2022/04/01 10:11:41;;;;;;;10.10;3.83;;;;;;;6.15;55.06;99270.63;6063185;23;20027;-68
2022/04/01 10:14:23;;;;;;;12.60;5.03;;;;;;;6.03;56.03;99276.06;6014212;23;20030;-69
2022/04/01 10:16:50;;;;;;;12.38;4.68;;;;;;;6.64;54.97;99263.63;5992224;23;20030;-68
2022/04/01 10:19:24;;;;;;;16.52;6.13;;;;;;;6.65;55.00;99258.09;6015278;23;20038;-68
2022/04/01 10:21:51;;;;;;;12.90;5.10;;;;;;;6.54;54.11;99258.22;6038961;23;20410;-68
2022/04/01 10:24:45;;;;;;;11.10;5.07;;;;;;;6.63;54.03;99251.19;6062929;23;20027;-68
2022/04/01 10:27:23;;;;;;;12.38;5.20;;;;;;;6.06;55.33;99258.81;6038802;23;20027;-69
2022/04/01 10:29:49;;;;;;;13.02;4.75;;;;;;;6.32;54.58;99253.88;6015891;23;20516;-69
2022/04/01 10:32:28;;;;;;;9.35;3.78;;;;;;;6.37;54.90;99254.34;6014995;23;20034;-68
2022/04/01 10:34:59;;;;;;;11.75;4.93;;;;;;;7.01;52.44;99264.72;6063146;23;20072;-69
2022/04/01 10:37:30;;;;;;;11.32;5.43;;;;;;;7.03;52.76;99253.00;6039488;23;20063;-67
2022/04/01 10:40:00;;;;;;;13.15;4.90;;;;;;;7.54;50.60;99249.22;6039650;23;20038;-68
2022/04/01 10:42:34;;;;;;;14.57;4.68;;;;;;;7.82;50.30;99245.66;6039845;23;20057;-69
2022/04/01 10:45:22;;;;;;;10.07;4.65;;;;;;;7.38;50.57;99241.72;6039347;23;20114;-68
2022/04/01 10:53:37;;;;;;;11.25;4.90;;;;;;;8.64;47.21;99230.69;5987603;23;20023;-69
2022/04/01 10:56:21;;;;;;;10.10;4.40;;;;;;;8.30;49.14;99207.00;6010660;23;20109;-68
2022/04/01 10:59:14;;;;;;;11.13;4.95;;;;;;;8.07;47.44;99224.50;6010122;23;20096;-69
2022/04/01 11:01:56;;;;;;;10.60;4.35;;;;;;;8.24;47.69;99212.97;5964913;23;20075;-67
2022/04/01 11:04:26;;;;;;;11.60;4.72;;;;;;;8.54;45.83;99213.72;6010723;23;20038;-68
2022/04/01 11:07:07;;;;;;;9.52;4.32;;;;;;;8.21;46.27;99186.34;5986579;23;20106;-68
2022/04/01 11:09:36;;;;;;;11.13;4.88;;;;;;;8.87;46.27;99212.28;5987387;23;20030;-68
2022/04/01 11:12:29;;;;;;;10.00;4.28;;;;;;;8.55;44.37;99215.41;6010073;23;20102;-68
2022/04/01 11:14:59;;;;;;;10.95;4.45;;;;;;;8.85;44.78;99201.66;5963124;23;20141;-68
2022/04/01 11:17:29;;;;;;;;;;;;;;;9.29;42.97;99204.47;5987096;23;20304;-68
2022/04/01 11:19:59;;;;;;;10.88;4.00;;;;;;;9.57;41.99;99198.97;6010018;23;20257;-68
2022/04/01 11:22:42;;;;;;;11.68;4.40;;;;;;;8.67;46.73;99195.38;6034960;23;20047;-69
2022/04/01 11:25:08;;;;;;;;;;;;;;;9.54;43.38;99196.56;6011143;23;20411;-68
2022/04/01 11:27:34;;;;;;;12.80;4.57;;;;;;;9.59;42.13;99189.72;6009963;23;19933;-68
2022/04/01 11:30:08;;;;;;;12.48;4.60;;;;;;;9.14;43.18;99185.28;6010379;23;20315;-68
2022/04/01 11:32:38;;;;;;;14.07;5.15;;;;;;;9.84;44.25;99187.22;6010155;23;20181;-68
2022/04/01 11:35:09;;;;;;;11.98;4.38;;;;;;;9.02;43.70;99180.25;5987025;23;20107;-69
2022/04/01 11:37:44;;;;;;;10.80;4.78;;;;;;;9.06;44.33;99178.94;5986930;23;20035;-69
2022/04/01 11:40:14;;;;;;;11.25;4.20;;;;;;;8.77;43.71;99169.19;6012285;23;20027;-68
2022/04/01 11:43:03;;;;;;;9.82;4.50;;;;;;;8.79;43.51;99159.13;5988841;23;20031;-68
2022/04/01 11:45:38;;;;;;;10.00;4.18;;;;;;;8.41;44.21;99161.06;5964530;23;20114;-69
2022/04/01 11:48:44;;;;;;;8.73;3.40;;;;;;;8.34;43.91;99159.94;5985923;23;20016;-68
2022/04/01 11:51:24;;;;;;;10.23;3.95;;;;;;;7.97;44.00;99144.63;5959718;23;20036;-71